createdAt,value
2018-06-17T00:01:03.536Z,100.00
2018-06-17T00:03:32.966Z,100.00
2018-06-17T00:06:01.550Z,100.00
2018-06-17T00:08:30.400Z,100.00
2018-06-17T00:10:59.021Z,100.00
2018-06-17T00:13:27.603Z,100.00
2018-06-17T00:15:56.176Z,100.00
2018-06-17T00:18:24.813Z,100.00
2018-06-17T00:20:53.392Z,100.00
2018-06-17T00:23:21.970Z,100.00
2018-06-17T00:25:50.652Z,100.00
2018-06-17T00:28:19.317Z,100.00
2018-06-17T00:30:47.899Z,100.00
2018-06-17T00:33:16.471Z,100.00
2018-06-17T00:35:45.071Z,100.00
2018-06-17T00:38:13.607Z,100.00
2018-06-17T00:40:42.158Z,100.00
2018-06-17T00:43:11.053Z,100.00
2018-06-17T00:45:39.662Z,100.00
2018-06-17T00:48:08.255Z,100.00
2018-06-17T00:50:36.837Z,100.00
2018-06-17T00:53:05.430Z,100.00
2018-06-17T00:55:34.022Z,100.00
2018-06-17T00:58:02.632Z,100.00
2018-06-17T01:00:31.232Z,100.00
2018-06-17T01:02:59.811Z,100.00
2018-06-17T01:05:28.412Z,100.00
2018-06-17T01:07:56.977Z,100.00
2018-06-17T01:10:25.600Z,100.00
2018-06-17T01:12:54.170Z,100.00
2018-06-17T01:15:22.717Z,100.00
2018-06-17T01:17:51.328Z,100.00
2018-06-17T01:20:19.913Z,100.00
2018-06-17T01:22:48.514Z,100.00
2018-06-17T01:25:17.064Z,100.00
2018-06-17T01:27:45.967Z,100.00
2018-06-17T01:30:14.570Z,100.00
2018-06-17T01:32:43.109Z,100.00
2018-06-17T01:35:11.714Z,100.00
2018-06-17T01:37:40.279Z,100.00
2018-06-17T01:40:08.825Z,100.00
2018-06-17T01:42:37.436Z,100.00
2018-06-17T01:45:06.096Z,100.00
2018-06-17T01:47:34.688Z,100.00
2018-06-17T01:50:03.391Z,100.00
2018-06-17T01:52:32.015Z,100.00
2018-06-17T01:55:00.688Z,100.00
2018-06-17T01:57:29.306Z,100.00
2018-06-17T01:59:57.887Z,100.00
2018-06-17T02:02:26.476Z,100.00
2018-06-17T02:05:00.236Z,100.00
2018-06-17T02:07:33.969Z,100.00
2018-06-17T02:10:07.875Z,100.00
2018-06-17T02:12:36.543Z,100.00
2018-06-17T02:15:05.398Z,100.00
2018-06-17T02:17:34.012Z,100.00
2018-06-17T02:20:02.588Z,100.00
2018-06-17T02:22:31.177Z,100.00
2018-06-17T02:24:59.831Z,100.00
2018-06-17T02:27:28.418Z,100.00
2018-06-17T02:29:57.035Z,100.00
2018-06-17T02:32:25.642Z,100.00
2018-06-17T02:34:54.263Z,100.00
2018-06-17T02:37:22.881Z,100.00
2018-06-17T02:39:51.494Z,100.00
2018-06-17T02:42:20.044Z,100.00
2018-06-17T02:44:52.738Z,100.00
2018-06-17T02:47:26.439Z,100.00
2018-06-17T02:49:55.050Z,100.00
2018-06-17T02:52:28.792Z,100.00
2018-06-17T02:54:57.404Z,100.00
2018-06-17T02:57:26.001Z,100.00
2018-06-17T02:59:54.598Z,100.00
2018-06-17T03:02:23.223Z,100.00
2018-06-17T03:04:51.782Z,100.00
2018-06-17T03:07:20.378Z,100.00
2018-06-17T03:09:48.931Z,100.00
2018-06-17T03:12:17.510Z,100.00
2018-06-17T03:14:46.096Z,100.00
2018-06-17T03:17:14.789Z,100.00
2018-06-17T03:19:43.362Z,100.00
2018-06-17T03:22:11.953Z,100.00
2018-06-17T03:24:45.810Z,100.00
2018-06-17T03:27:19.682Z,100.00
2018-06-17T03:30:57.163Z,100.00
2018-06-17T03:33:31.032Z,100.00
2018-06-17T03:36:11.465Z,100.00
2018-06-17T03:38:41.639Z,100.00
2018-06-17T03:41:11.023Z,100.00
2018-06-17T03:43:39.804Z,100.00
2018-06-17T03:46:08.658Z,100.00
2018-06-17T03:48:37.294Z,100.00
2018-06-17T03:51:05.921Z,100.00
2018-06-17T03:53:34.523Z,100.00
2018-06-17T03:56:03.109Z,100.00
2018-06-17T03:58:31.729Z,100.00
2018-06-17T04:01:00.338Z,100.00
2018-06-17T04:03:28.980Z,100.00
2018-06-17T04:05:57.552Z,100.00
2018-06-17T04:08:26.172Z,100.00
2018-06-17T04:10:54.813Z,100.00
2018-06-17T04:13:23.363Z,100.00
2018-06-17T04:15:52.027Z,100.00
2018-06-17T04:18:20.639Z,100.00
2018-06-17T04:20:49.305Z,100.00
2018-06-17T04:23:17.974Z,100.00
2018-06-17T04:25:46.562Z,100.00
2018-06-17T04:28:15.162Z,100.00
2018-06-17T04:30:43.825Z,100.00
2018-06-17T04:33:12.398Z,100.00
2018-06-17T04:35:40.999Z,100.00
2018-06-17T04:38:09.569Z,100.00
2018-06-17T04:40:38.180Z,100.00
2018-06-17T04:43:06.796Z,99.80
2018-06-17T04:45:35.430Z,100.00
2018-06-17T04:48:04.040Z,100.00
2018-06-17T04:50:32.630Z,100.00
2018-06-17T04:53:01.251Z,99.78
2018-06-17T04:55:29.898Z,98.59
2018-06-17T04:57:58.499Z,97.60
2018-06-17T05:00:27.139Z,98.10
2018-06-17T05:02:55.686Z,97.03
2018-06-17T05:05:24.314Z,94.57
2018-06-17T05:07:52.970Z,94.26
2018-06-17T05:10:21.553Z,93.01
2018-06-17T05:12:50.171Z,92.78
2018-06-17T05:15:18.715Z,93.04
2018-06-17T05:17:47.318Z,93.42
2018-06-17T05:20:15.930Z,92.73
2018-06-17T05:22:44.513Z,92.13
2018-06-17T05:25:13.116Z,91.42
2018-06-17T05:27:41.702Z,89.27
2018-06-17T05:30:10.310Z,89.17
2018-06-17T05:32:38.868Z,90.69
2018-06-17T05:35:07.484Z,92.60
2018-06-17T05:37:37.095Z,94.11
2018-06-17T05:40:05.689Z,93.18
2018-06-17T05:42:34.277Z,93.16
2018-06-17T05:45:03.019Z,93.05
2018-06-17T05:47:31.664Z,94.41
2018-06-17T05:50:00.241Z,94.80
2018-06-17T05:52:29.165Z,94.27
2018-06-17T05:54:57.751Z,94.81
2018-06-17T05:57:26.319Z,94.24
2018-06-17T05:59:54.927Z,92.91
2018-06-17T06:02:23.474Z,90.79
2018-06-17T06:04:52.079Z,88.64
2018-06-17T06:07:20.677Z,85.75
2018-06-17T06:09:49.274Z,85.12
2018-06-17T06:12:17.827Z,83.61
2018-06-17T06:14:46.424Z,84.64
2018-06-17T06:17:15.010Z,84.99
2018-06-17T06:19:43.601Z,85.94
2018-06-17T06:22:12.211Z,84.68
2018-06-17T06:24:40.817Z,78.67
2018-06-17T06:27:09.463Z,75.36
2018-06-17T06:29:38.038Z,72.75
2018-06-17T06:32:06.651Z,70.45
2018-06-17T06:34:35.261Z,68.73
2018-06-17T06:37:03.915Z,69.09
2018-06-17T06:39:32.568Z,68.79
2018-06-17T06:42:01.126Z,69.60
2018-06-17T06:44:29.730Z,69.48
2018-06-17T06:46:58.338Z,70.74
2018-06-17T06:49:26.914Z,65.45
2018-06-17T06:51:55.551Z,63.68
2018-06-17T06:54:24.138Z,62.49
2018-06-17T06:56:52.686Z,60.03
2018-06-17T06:59:21.285Z,59.36
2018-06-17T07:02:01.037Z,58.54
2018-06-17T07:04:40.673Z,57.84
2018-06-17T07:07:20.369Z,59.67
2018-06-17T07:09:59.980Z,59.65
2018-06-17T07:12:28.517Z,57.93
2018-06-17T07:14:57.207Z,61.05
2018-06-17T07:17:36.898Z,65.51
2018-06-17T07:20:05.318Z,68.09
2018-06-17T07:22:33.908Z,68.84
2018-06-17T07:25:02.486Z,65.80
2018-06-17T07:27:42.027Z,62.74
2018-06-17T07:30:10.626Z,60.78
2018-06-17T07:32:39.222Z,58.02
2018-06-17T07:35:07.833Z,57.38
2018-06-17T07:37:36.734Z,56.74
2018-06-17T07:41:08.639Z,57.81
2018-06-17T07:43:37.206Z,57.20
2018-06-17T07:46:05.855Z,56.84
2018-06-17T07:49:50.971Z,56.40
2018-06-17T07:52:31.855Z,54.79
2018-06-17T07:55:00.422Z,55.71
2018-06-17T07:57:43.601Z,53.89
2018-06-17T08:00:12.341Z,53.13
2018-06-17T08:02:40.938Z,55.52
2018-06-17T08:05:09.520Z,53.11
2018-06-17T08:07:38.429Z,52.75
2018-06-17T08:10:07.061Z,51.15
2018-06-17T08:12:35.714Z,49.10
2018-06-17T08:15:04.366Z,51.33
2018-06-17T08:17:32.947Z,48.67
2018-06-17T08:20:01.525Z,50.23
2018-06-17T08:22:30.945Z,52.49
2018-06-17T08:24:59.999Z,49.38
2018-06-17T08:27:28.589Z,50.94
2018-06-17T08:29:57.509Z,49.11
2018-06-17T08:32:26.094Z,50.48
2018-06-17T08:34:54.750Z,47.60
2018-06-17T08:37:23.422Z,47.53
2018-06-17T08:39:52.024Z,47.12
2018-06-17T08:42:20.883Z,48.48
2018-06-17T08:44:49.821Z,47.14
2018-06-17T08:47:18.439Z,46.57
2018-06-17T08:49:47.354Z,45.76
2018-06-17T08:52:15.964Z,45.65
2018-06-17T08:54:44.560Z,45.36
2018-06-17T08:57:13.146Z,46.48
2018-06-17T08:59:41.819Z,45.29
2018-06-17T09:02:10.413Z,45.56
2018-06-17T09:04:39.115Z,46.72
2018-06-17T09:07:07.734Z,46.46
2018-06-17T09:09:36.624Z,45.91
2018-06-17T09:12:05.287Z,44.97
2018-06-17T09:14:33.858Z,44.25
2018-06-17T09:17:02.466Z,45.20
2018-06-17T09:19:31.370Z,44.46
2018-06-17T09:22:00.080Z,43.79
2018-06-17T09:24:28.696Z,44.74
2018-06-17T09:26:57.359Z,42.84
2018-06-17T09:29:25.927Z,45.97
2018-06-17T09:31:54.531Z,46.73
2018-06-17T09:34:23.497Z,43.45
2018-06-17T09:36:52.562Z,43.07
2018-06-17T09:39:21.181Z,42.87
2018-06-17T09:41:49.877Z,43.38
2018-06-17T09:44:18.572Z,42.26
2018-06-17T09:46:47.143Z,42.48
2018-06-17T09:49:15.832Z,42.95
2018-06-17T09:51:44.462Z,39.46
2018-06-17T09:54:13.119Z,40.81
2018-06-17T09:56:42.035Z,38.96
2018-06-17T09:59:10.894Z,42.85
2018-06-17T10:01:42.615Z,43.54
2018-06-17T10:04:11.168Z,43.21
2018-06-17T10:06:39.775Z,40.75
2018-06-17T10:09:09.944Z,37.74
2018-06-17T10:11:38.543Z,37.33
2018-06-17T10:14:07.157Z,40.92
2018-06-17T10:16:36.132Z,44.22
2018-06-17T10:19:04.750Z,47.83
2018-06-17T10:21:33.373Z,46.77
2018-06-17T10:24:01.984Z,43.26
2018-06-17T10:26:30.647Z,41.90
2018-06-17T10:28:59.214Z,40.42
2018-06-17T10:31:28.231Z,41.84
2018-06-17T10:33:56.871Z,45.15
2018-06-17T10:36:26.014Z,48.16
2018-06-17T10:38:54.652Z,49.43
2018-06-17T10:41:23.327Z,50.42
2018-06-17T10:43:52.020Z,51.51
2018-06-17T10:46:20.568Z,50.59
2018-06-17T10:48:49.202Z,48.57
2018-06-17T10:51:17.865Z,47.24
2018-06-17T10:53:46.871Z,43.20
2018-06-17T10:56:15.910Z,38.85
2018-06-17T10:58:44.744Z,37.24
2018-06-17T11:01:13.372Z,36.28
2018-06-17T11:03:42.227Z,33.87
2018-06-17T11:06:11.552Z,34.39
2018-06-17T11:08:42.481Z,36.37
2018-06-17T11:11:11.429Z,38.46
2018-06-17T11:13:40.245Z,37.32
2018-06-17T11:16:09.929Z,36.78
2018-06-17T11:18:38.791Z,38.02
2018-06-17T11:21:07.698Z,37.39
2018-06-17T11:23:36.862Z,38.48
2018-06-17T11:26:07.144Z,39.07
2018-06-17T11:28:36.022Z,43.66
2018-06-17T11:31:04.639Z,41.06
2018-06-17T11:33:33.318Z,38.51
2018-06-17T11:36:01.898Z,37.41
2018-06-17T11:38:31.598Z,39.32
2018-06-17T11:41:00.559Z,37.75
2018-06-17T11:43:29.296Z,36.21
2018-06-17T11:45:58.589Z,39.48
2018-06-17T11:48:27.716Z,41.41
2018-06-17T11:50:56.953Z,42.83
2018-06-17T11:53:27.268Z,40.96
2018-06-17T11:55:55.938Z,42.80
2018-06-17T11:58:24.571Z,43.59
2018-06-17T12:00:53.402Z,44.67
2018-06-17T12:03:22.393Z,45.23
2018-06-17T12:05:51.270Z,46.84
2018-06-17T12:08:20.294Z,47.58
2018-06-17T12:10:49.027Z,51.04
2018-06-17T12:13:17.709Z,53.06
2018-06-17T12:15:46.363Z,53.88
2018-06-17T12:18:15.559Z,54.09
2018-06-17T12:20:44.481Z,54.39
2018-06-17T12:23:13.103Z,53.68
2018-06-17T12:25:42.666Z,51.24
2018-06-17T12:28:11.282Z,53.54
2018-06-17T12:30:40.076Z,54.01
2018-06-17T12:33:08.784Z,55.49
2018-06-17T12:35:37.540Z,55.86
2018-06-17T12:38:06.439Z,55.25
2018-06-17T12:40:35.301Z,56.13
2018-06-17T12:43:04.395Z,56.29
2018-06-17T12:45:33.068Z,55.92
2018-06-17T12:48:01.708Z,54.93
2018-06-17T12:50:30.846Z,53.90
2018-06-17T12:52:59.470Z,54.33
2018-06-17T12:55:28.614Z,54.20
2018-06-17T12:57:57.608Z,53.60
2018-06-17T13:00:26.568Z,55.42
2018-06-17T13:02:56.957Z,56.02
2018-06-17T13:05:25.902Z,56.19
2018-06-17T13:07:54.667Z,55.89
2018-06-17T13:10:24.729Z,58.01
2018-06-17T13:12:53.921Z,57.82
2018-06-17T13:15:22.584Z,60.01
2018-06-17T13:17:51.801Z,61.56
2018-06-17T13:20:21.545Z,61.59
2018-06-17T13:22:50.153Z,57.36
2018-06-17T13:25:19.013Z,57.25
2018-06-17T13:27:47.760Z,57.68
2018-06-17T13:30:18.929Z,58.88
2018-06-17T13:32:47.672Z,60.08
2018-06-17T13:35:16.745Z,60.48
2018-06-17T13:37:45.444Z,63.08
2018-06-17T13:40:14.066Z,62.74
2018-06-17T13:42:42.786Z,64.06
2018-06-17T13:45:11.592Z,64.23
2018-06-17T13:47:40.700Z,65.50
2018-06-17T13:50:09.383Z,65.95
2018-06-17T13:52:38.220Z,64.76
2018-06-17T13:55:06.918Z,65.44
2018-06-17T13:57:35.787Z,66.75
2018-06-17T14:00:06.511Z,66.90
2018-06-17T14:02:35.232Z,65.92
2018-06-17T14:05:04.058Z,66.98
2018-06-17T14:07:32.696Z,65.11
2018-06-17T14:10:01.306Z,64.67
2018-06-17T14:12:30.067Z,64.49
2018-06-17T14:14:58.887Z,65.17
2018-06-17T14:17:27.754Z,63.87
2018-06-17T14:19:56.850Z,62.36
2018-06-17T14:22:26.150Z,63.27
2018-06-17T14:24:55.327Z,63.18
2018-06-17T14:27:24.103Z,62.57
2018-06-17T14:29:52.867Z,62.02
2018-06-17T14:32:22.141Z,62.40
2018-06-17T14:34:51.236Z,63.76
2018-06-17T14:37:20.307Z,63.96
2018-06-17T14:39:49.447Z,63.43
2018-06-17T14:42:23.378Z,62.28
2018-06-17T14:45:55.815Z,61.69
2018-06-17T14:48:30.139Z,59.73
2018-06-17T14:51:04.288Z,58.83
2018-06-17T14:53:33.512Z,59.47
2018-06-17T14:56:02.189Z,58.25
2018-06-17T14:58:31.043Z,59.16
2018-06-17T15:01:00.073Z,59.40
2018-06-17T15:03:28.854Z,62.39
2018-06-17T15:05:57.494Z,63.49
2018-06-17T15:08:26.232Z,65.02
2018-06-17T15:10:55.295Z,65.13
2018-06-17T15:13:24.516Z,65.43
2018-06-17T15:15:53.268Z,67.00
2018-06-17T15:18:22.066Z,63.97
2018-06-17T15:20:50.882Z,65.21
2018-06-17T15:23:19.601Z,68.70
2018-06-17T15:25:48.384Z,67.29
2018-06-17T15:28:17.142Z,67.11
2018-06-17T15:30:46.019Z,66.78
2018-06-17T15:33:20.205Z,66.36
2018-06-17T15:35:54.117Z,66.18
2018-06-17T15:38:28.140Z,68.69
2018-06-17T15:41:02.083Z,71.21
2018-06-17T15:43:31.163Z,67.55
2018-06-17T15:46:00.053Z,66.67
2018-06-17T15:48:28.843Z,66.89
2018-06-17T15:50:57.692Z,67.79
2018-06-17T15:53:26.623Z,70.58
2018-06-17T15:55:55.560Z,72.79
2018-06-17T15:58:24.462Z,74.47
2018-06-17T16:00:53.618Z,76.65
2018-06-17T16:03:22.512Z,79.15
2018-06-17T16:05:51.889Z,80.48
2018-06-17T16:08:20.688Z,82.47
2018-06-17T16:10:49.544Z,81.52
2018-06-17T16:13:23.769Z,84.01
2018-06-17T16:15:57.634Z,87.01
2018-06-17T16:18:31.342Z,88.86
2018-06-17T16:21:00.782Z,90.68
2018-06-17T16:23:30.801Z,91.07
2018-06-17T16:25:59.919Z,92.81
2018-06-17T16:28:28.689Z,95.24
2018-06-17T16:31:00.297Z,97.39
2018-06-17T16:33:29.733Z,98.38
2018-06-17T16:35:58.757Z,100.00
2018-06-17T16:38:27.515Z,100.00
2018-06-17T16:40:56.786Z,100.00
2018-06-17T16:43:27.033Z,100.00
2018-06-17T16:45:55.867Z,100.00
2018-06-17T16:48:24.922Z,100.00
2018-06-17T16:51:01.144Z,100.00
2018-06-17T16:53:35.394Z,100.00
2018-06-17T16:56:10.049Z,100.00
2018-06-17T16:58:43.700Z,100.00
2018-06-17T17:01:12.887Z,100.00
2018-06-17T17:03:41.804Z,100.00
2018-06-17T17:06:10.523Z,100.00
2018-06-17T17:08:39.214Z,100.00
2018-06-17T17:11:08.144Z,100.00
2018-06-17T17:13:37.138Z,100.00
2018-06-17T17:16:05.934Z,100.00
2018-06-17T17:18:34.672Z,100.00
2018-06-17T17:21:03.435Z,100.00
2018-06-17T17:23:32.184Z,100.00
2018-06-17T17:26:00.910Z,100.00
2018-06-17T17:28:29.594Z,100.00
2018-06-17T17:30:58.594Z,100.00
2018-06-17T17:33:32.370Z,100.00
2018-06-17T17:36:06.484Z,100.00
2018-06-17T17:38:40.528Z,100.00
2018-06-17T17:41:09.399Z,100.00
2018-06-17T17:43:38.089Z,100.00
2018-06-17T17:46:12.091Z,100.00
2018-06-17T17:48:40.750Z,100.00
2018-06-17T17:51:09.718Z,100.00
2018-06-17T17:53:38.439Z,100.00
2018-06-17T17:56:07.186Z,100.00
2018-06-17T17:58:35.814Z,100.00
2018-06-17T18:01:04.555Z,100.00
2018-06-17T18:03:33.598Z,100.00
2018-06-17T18:06:02.277Z,100.00
2018-06-17T18:08:31.282Z,100.00
2018-06-17T18:10:59.890Z,100.00
2018-06-17T18:13:28.491Z,100.00
2018-06-17T18:15:57.164Z,100.00
2018-06-17T18:18:25.802Z,100.00
2018-06-17T18:20:54.555Z,100.00
2018-06-17T18:23:23.211Z,100.00
2018-06-17T18:25:57.111Z,100.00
2018-06-17T18:28:30.968Z,100.00
2018-06-17T18:31:03.169Z,100.00
2018-06-17T18:33:36.956Z,100.00
2018-06-17T18:36:08.636Z,100.00
2018-06-17T18:38:38.351Z,100.00
2018-06-17T18:41:07.291Z,100.00
2018-06-17T18:43:36.027Z,100.00
2018-06-17T18:46:04.653Z,100.00
2018-06-17T18:48:33.347Z,100.00
2018-06-17T18:51:01.988Z,100.00
2018-06-17T18:53:30.591Z,100.00
2018-06-17T18:55:59.209Z,100.00
2018-06-17T18:58:27.897Z,100.00
2018-06-17T19:00:56.779Z,100.00
2018-06-17T19:03:25.663Z,100.00
2018-06-17T19:05:54.862Z,100.00
2018-06-17T19:08:28.798Z,100.00
2018-06-17T19:11:02.492Z,100.00
2018-06-17T19:13:36.399Z,100.00
2018-06-17T19:16:13.464Z,100.00
2018-06-17T19:18:42.129Z,100.00
2018-06-17T19:21:11.007Z,100.00
2018-06-17T19:23:39.696Z,100.00
2018-06-17T19:26:08.355Z,100.00
2018-06-17T19:28:36.989Z,100.00
2018-06-17T19:31:05.759Z,100.00
2018-06-17T19:33:34.408Z,100.00
2018-06-17T19:36:03.249Z,100.00
2018-06-17T19:38:32.100Z,100.00
2018-06-17T19:41:00.884Z,100.00
2018-06-17T19:43:29.511Z,100.00
2018-06-17T19:45:58.489Z,100.00
2018-06-17T19:48:27.167Z,100.00
2018-06-17T19:51:01.060Z,100.00
2018-06-17T19:53:34.941Z,100.00
2018-06-17T19:56:08.827Z,100.00
2018-06-17T19:58:42.692Z,100.00
2018-06-17T20:01:11.367Z,100.00
2018-06-17T20:03:40.271Z,100.00
2018-06-17T20:06:08.963Z,100.00
2018-06-17T20:08:37.597Z,100.00
2018-06-17T20:11:06.575Z,100.00
2018-06-17T20:13:35.387Z,100.00
2018-06-17T20:16:04.086Z,100.00
2018-06-17T20:18:32.849Z,100.00
2018-06-17T20:21:01.544Z,100.00
2018-06-17T20:23:30.252Z,100.00
2018-06-17T20:25:58.920Z,100.00
2018-06-17T20:28:27.690Z,100.00
2018-06-17T20:31:00.407Z,100.00
2018-06-17T20:33:34.275Z,100.00
2018-06-17T20:36:08.067Z,100.00
2018-06-17T20:40:44.227Z,100.00
2018-06-17T20:43:18.034Z,100.00
2018-06-17T20:45:46.657Z,100.00
2018-06-17T20:48:15.351Z,100.00
2018-06-17T20:50:44.006Z,100.00
2018-06-17T20:53:12.704Z,100.00
2018-06-17T20:55:41.403Z,100.00
2018-06-17T20:58:10.039Z,100.00
2018-06-17T21:00:38.773Z,100.00
2018-06-17T21:03:07.455Z,100.00
2018-06-17T21:05:36.161Z,100.00
2018-06-17T21:08:05.335Z,100.00
2018-06-17T21:10:34.044Z,100.00
2018-06-17T21:13:03.206Z,100.00
2018-06-17T21:15:32.526Z,100.00
2018-06-17T21:18:01.140Z,100.00
2018-06-17T21:20:35.019Z,100.00
2018-06-17T21:23:08.953Z,100.00
2018-06-17T21:25:43.036Z,100.00
2018-06-17T21:28:12.526Z,100.00
2018-06-17T21:30:41.225Z,100.00
2018-06-17T21:33:09.897Z,100.00
2018-06-17T21:35:38.802Z,100.00
2018-06-17T21:38:07.484Z,100.00
2018-06-17T21:40:36.463Z,100.00
2018-06-17T21:43:05.111Z,100.00
2018-06-17T21:45:33.807Z,100.00
2018-06-17T21:48:02.434Z,100.00
2018-06-17T21:50:31.159Z,100.00
2018-06-17T21:53:00.095Z,100.00
2018-06-17T21:55:28.694Z,100.00
2018-06-17T21:57:57.411Z,100.00
2018-06-17T22:00:26.048Z,100.00
2018-06-17T22:02:54.649Z,100.00
2018-06-17T22:05:23.266Z,100.00
2018-06-17T22:07:57.075Z,100.00
2018-06-17T22:10:31.050Z,100.00
2018-06-17T22:13:00.859Z,100.00
2018-06-17T22:15:34.788Z,100.00
2018-06-17T22:18:03.922Z,100.00
2018-06-17T22:20:32.656Z,100.00
2018-06-17T22:23:01.333Z,100.00
2018-06-17T22:25:29.904Z,100.00
2018-06-17T22:27:58.478Z,100.00
2018-06-17T22:30:28.030Z,100.00
2018-06-17T22:32:56.988Z,100.00
2018-06-17T22:35:25.579Z,100.00
2018-06-17T22:37:54.461Z,100.00
2018-06-17T22:40:23.108Z,100.00
2018-06-17T22:42:51.757Z,100.00
2018-06-17T22:45:20.639Z,100.00
2018-06-17T22:47:54.465Z,100.00
2018-06-17T22:50:23.749Z,100.00
2018-06-17T22:53:03.386Z,100.00
2018-06-17T22:55:31.979Z,100.00
2018-06-17T22:58:05.716Z,100.00
2018-06-17T23:00:39.702Z,100.00
2018-06-17T23:03:13.554Z,100.00
2018-06-17T23:05:47.414Z,100.00
2018-06-17T23:08:21.232Z,100.00
2018-06-17T23:10:49.783Z,100.00
2018-06-17T23:13:18.429Z,100.00
2018-06-17T23:15:47.043Z,100.00
2018-06-17T23:18:15.681Z,100.00
2018-06-17T23:20:44.281Z,100.00
2018-06-17T23:23:12.831Z,100.00
2018-06-17T23:25:41.444Z,100.00
2018-06-17T23:28:10.317Z,100.00
2018-06-17T23:30:39.059Z,100.00
2018-06-17T23:33:07.878Z,100.00
2018-06-17T23:35:36.465Z,100.00
2018-06-17T23:38:05.086Z,100.00
2018-06-17T23:40:33.659Z,100.00
2018-06-17T23:43:02.313Z,100.00
2018-06-17T23:45:30.920Z,100.00
2018-06-17T23:48:04.937Z,100.00
2018-06-17T23:50:38.736Z,100.00
2018-06-17T23:53:12.982Z,100.00
2018-06-17T23:55:46.746Z,100.00
2018-06-17T23:58:15.397Z,100.00
